createdAt,value
2017-07-03T00:00:31.126Z,81.50
2017-07-03T00:03:03.051Z,80.90
2017-07-03T00:05:31.575Z,81.80
2017-07-03T00:08:00.099Z,82.40
2017-07-03T00:10:28.681Z,81.70
2017-07-03T00:12:59.655Z,81.70
2017-07-03T00:15:28.345Z,81.80
2017-07-03T00:17:56.858Z,82.00
2017-07-03T00:20:25.512Z,81.90
2017-07-03T00:22:53.993Z,82.90
2017-07-03T00:25:22.492Z,81.60
2017-07-03T00:27:50.980Z,81.30
2017-07-03T00:30:19.476Z,81.30
2017-07-03T00:32:48.061Z,81.90
2017-07-03T00:35:18.464Z,80.40
2017-07-03T00:37:47.046Z,80.40
2017-07-03T00:40:24.116Z,80.70
2017-07-03T00:42:52.593Z,79.80
2017-07-03T00:45:21.138Z,80.60
2017-07-03T00:47:52.633Z,80.40
2017-07-03T00:50:24.351Z,81.30
2017-07-03T00:53:08.560Z,82.80
2017-07-03T00:58:18.755Z,82.20
2017-07-03T01:00:47.318Z,81.90
2017-07-03T01:03:18.795Z,81.80
2017-07-03T01:05:47.285Z,82.20
2017-07-03T01:08:23.667Z,82.20
2017-07-03T01:10:52.717Z,81.80
2017-07-03T01:13:21.227Z,81.00
2017-07-03T01:15:49.997Z,81.20
2017-07-03T01:18:20.446Z,82.00
2017-07-03T01:20:48.911Z,81.20
2017-07-03T01:23:17.450Z,80.40
2017-07-03T01:25:46.149Z,78.80
2017-07-03T01:28:14.866Z,76.40
2017-07-03T01:30:43.374Z,75.40
2017-07-03T01:33:11.836Z,76.20
2017-07-03T01:35:40.314Z,77.00
2017-07-03T01:38:09.973Z,78.00
2017-07-03T01:40:38.544Z,77.80
2017-07-03T01:43:07.017Z,78.70
2017-07-03T01:45:35.571Z,80.10
2017-07-03T01:48:04.053Z,79.10
2017-07-03T01:50:32.595Z,79.80
2017-07-03T01:53:01.050Z,79.10
2017-07-03T01:55:29.630Z,79.40
2017-07-03T01:57:58.102Z,79.70
2017-07-03T02:00:27.124Z,79.50
2017-07-03T02:02:55.656Z,80.70
2017-07-03T02:05:24.153Z,80.30
2017-07-03T02:07:52.662Z,80.40
2017-07-03T02:10:21.234Z,79.60
2017-07-03T02:12:49.868Z,80.20
2017-07-03T02:15:18.405Z,81.20
2017-07-03T02:17:46.891Z,82.00
2017-07-03T02:20:15.495Z,81.90
2017-07-03T02:22:44.041Z,81.70
2017-07-03T02:25:23.840Z,81.60
2017-07-03T02:27:52.602Z,82.80
2017-07-03T02:30:21.179Z,82.70
2017-07-03T02:32:49.659Z,83.00
2017-07-03T02:35:18.174Z,83.00
2017-07-03T02:37:46.709Z,84.10
2017-07-03T02:40:15.535Z,83.50
2017-07-03T02:42:44.035Z,83.80
2017-07-03T02:45:12.508Z,85.10
2017-07-03T02:47:42.545Z,83.10
2017-07-03T02:50:11.121Z,82.10
2017-07-03T02:52:39.646Z,82.60
2017-07-03T02:55:08.186Z,82.80
2017-07-03T02:57:36.703Z,82.30
2017-07-03T03:00:04.842Z,82.70
2017-07-03T03:02:33.324Z,82.90
2017-07-03T03:05:01.647Z,82.80
2017-07-03T03:07:32.645Z,83.30
2017-07-03T03:10:01.122Z,82.10
2017-07-03T03:12:29.926Z,82.00
2017-07-03T03:14:58.418Z,84.30
2017-07-03T03:17:26.693Z,83.50
2017-07-03T03:19:55.259Z,84.10
2017-07-03T03:22:23.804Z,85.40
2017-07-03T03:24:52.289Z,83.80
2017-07-03T03:27:20.809Z,84.10
2017-07-03T03:29:51.388Z,84.20
2017-07-03T03:32:19.866Z,85.40
2017-07-03T03:34:48.420Z,83.50
2017-07-03T03:37:31.509Z,84.60
2017-07-03T03:40:00.008Z,84.40
2017-07-03T03:42:28.538Z,84.80
2017-07-03T03:44:57.007Z,84.80
2017-07-03T03:47:36.851Z,84.20
2017-07-03T03:50:05.318Z,84.80
2017-07-03T03:52:36.494Z,85.70
2017-07-03T03:55:08.705Z,84.60
2017-07-03T03:57:37.187Z,84.10
2017-07-03T04:00:04.975Z,85.40
2017-07-03T04:02:33.477Z,84.30
2017-07-03T04:05:01.957Z,83.40
2017-07-03T04:07:30.443Z,84.70
2017-07-03T04:09:59.806Z,86.40
2017-07-03T04:12:28.536Z,86.30
2017-07-03T04:14:57.021Z,85.40
2017-07-03T04:17:25.582Z,83.90
2017-07-03T04:19:54.166Z,84.60
2017-07-03T04:22:23.467Z,84.50
2017-07-03T04:24:55.472Z,84.50
2017-07-03T04:27:23.957Z,84.10
2017-07-03T04:29:52.508Z,83.30
2017-07-03T04:32:21.066Z,82.50
2017-07-03T04:34:49.550Z,82.60
2017-07-03T04:37:18.080Z,81.80
2017-07-03T04:39:46.598Z,82.00
2017-07-03T04:42:15.082Z,80.60
2017-07-03T04:44:43.672Z,79.70
2017-07-03T04:47:12.451Z,79.40
2017-07-03T04:49:41.034Z,79.70
2017-07-03T04:52:09.541Z,78.10
2017-07-03T04:54:38.326Z,78.80
2017-07-03T04:57:06.799Z,77.70
2017-07-03T04:59:35.051Z,77.30
2017-07-03T05:02:03.628Z,77.80
2017-07-03T05:04:31.853Z,77.20
2017-07-03T05:07:00.327Z,78.20
2017-07-03T05:09:28.826Z,77.90
2017-07-03T05:11:57.295Z,78.50
2017-07-03T05:14:25.806Z,79.40
2017-07-03T05:16:54.226Z,78.70
2017-07-03T05:19:22.712Z,77.70
2017-07-03T05:21:51.159Z,77.70
2017-07-03T05:24:19.614Z,76.60
2017-07-03T05:26:48.158Z,77.00
2017-07-03T05:29:16.611Z,77.60
2017-07-03T05:31:45.140Z,75.10
2017-07-03T05:34:13.596Z,74.10
2017-07-03T05:36:43.934Z,72.00
2017-07-03T05:39:12.478Z,69.00
2017-07-03T05:41:41.324Z,68.40
2017-07-03T05:44:15.338Z,63.80
2017-07-03T05:46:43.861Z,62.30
2017-07-03T05:49:13.438Z,64.90
2017-07-03T05:51:42.048Z,64.90
2017-07-03T05:54:20.911Z,61.70
2017-07-03T05:57:12.507Z,64.50
2017-07-03T05:59:40.845Z,66.40
2017-07-03T06:02:09.603Z,65.40
2017-07-03T06:04:38.139Z,68.00
2017-07-03T06:07:06.999Z,66.40
2017-07-03T06:09:35.488Z,64.40
2017-07-03T06:12:03.971Z,61.40
2017-07-03T06:14:32.482Z,57.70
2017-07-03T06:17:00.975Z,54.20
2017-07-03T06:19:29.583Z,53.90
2017-07-03T06:21:58.126Z,49.90
2017-07-03T06:24:34.195Z,49.00
2017-07-03T06:27:02.676Z,49.30
2017-07-03T06:29:31.151Z,47.60
2017-07-03T06:31:59.672Z,48.40
2017-07-03T06:34:32.084Z,47.30
2017-07-03T06:37:00.603Z,46.60
2017-07-03T06:39:29.157Z,47.10
2017-07-03T06:41:57.673Z,46.60
2017-07-03T06:44:26.202Z,46.60
2017-07-03T06:46:56.366Z,44.80
2017-07-03T06:49:24.846Z,44.20
2017-07-03T06:51:53.399Z,44.50
2017-07-03T06:54:21.957Z,44.40
2017-07-03T06:56:50.495Z,45.40
2017-07-03T06:59:19.029Z,43.50
2017-07-03T07:01:47.567Z,40.80
2017-07-03T07:04:16.043Z,40.60
2017-07-03T07:06:44.502Z,40.00
2017-07-03T07:09:13.074Z,39.40
2017-07-03T07:11:41.602Z,41.40
2017-07-03T07:14:10.146Z,38.50
2017-07-03T07:16:38.922Z,38.40
2017-07-03T07:19:07.478Z,38.90
2017-07-03T07:21:35.963Z,34.10
2017-07-03T07:24:43.146Z,36.50
2017-07-03T07:27:11.641Z,36.60
2017-07-03T07:29:40.145Z,38.70
2017-07-03T07:32:08.660Z,36.60
2017-07-03T07:34:37.205Z,35.80
2017-07-03T07:37:05.723Z,38.50
2017-07-03T07:39:34.252Z,40.30
2017-07-03T07:42:02.768Z,36.00
2017-07-03T07:44:31.280Z,37.50
2017-07-03T07:46:59.794Z,40.60
2017-07-03T07:49:28.299Z,36.80
2017-07-03T07:51:56.776Z,34.90
2017-07-03T07:54:25.393Z,35.10
2017-07-03T07:56:53.907Z,35.40
2017-07-03T07:59:22.574Z,35.60
2017-07-03T08:01:51.412Z,35.30
2017-07-03T08:04:19.917Z,36.40
2017-07-03T08:06:48.403Z,40.30
2017-07-03T08:09:16.912Z,36.40
2017-07-03T08:11:45.412Z,38.50
2017-07-03T08:14:13.870Z,42.00
2017-07-03T08:16:46.082Z,38.30
2017-07-03T08:19:14.651Z,39.70
2017-07-03T08:21:43.112Z,39.00
2017-07-03T08:24:11.645Z,38.80
2017-07-03T08:26:43.012Z,37.60
2017-07-03T08:29:11.523Z,36.90
2017-07-03T08:31:40.088Z,31.90
2017-07-03T08:34:08.597Z,31.40
2017-07-03T08:36:37.190Z,34.50
2017-07-03T08:39:05.462Z,36.60
2017-07-03T08:41:34.639Z,35.30
2017-07-03T08:44:03.372Z,36.10
2017-07-03T08:46:31.874Z,37.40
2017-07-03T08:49:00.053Z,41.40
2017-07-03T08:51:28.551Z,41.30
2017-07-03T08:53:57.108Z,41.70
2017-07-03T08:56:25.599Z,42.20
2017-07-03T08:58:55.154Z,44.40
2017-07-03T09:01:23.737Z,45.10
2017-07-03T09:03:52.246Z,44.30
2017-07-03T09:06:21.539Z,43.80
2017-07-03T09:08:50.905Z,43.80
2017-07-03T09:11:19.431Z,43.80
2017-07-03T09:13:47.956Z,44.90
2017-07-03T09:16:16.465Z,44.20
2017-07-03T09:18:45.102Z,46.90
2017-07-03T09:21:13.608Z,45.50
2017-07-03T09:23:42.157Z,41.40
2017-07-03T09:26:10.679Z,44.70
2017-07-03T09:28:39.145Z,46.50
2017-07-03T09:31:07.704Z,48.00
2017-07-03T09:33:36.185Z,48.20
2017-07-03T09:36:04.686Z,47.40
2017-07-03T09:38:33.329Z,46.50
2017-07-03T09:41:01.797Z,48.70
2017-07-03T09:43:31.147Z,46.90
2017-07-03T09:45:59.703Z,47.00
2017-07-03T09:48:28.215Z,47.80
2017-07-03T09:50:57.470Z,46.40
2017-07-03T09:53:25.999Z,46.50
2017-07-03T09:55:55.233Z,46.40
2017-07-03T09:58:23.764Z,44.70
2017-07-03T10:00:52.324Z,49.80
2017-07-03T10:03:20.597Z,49.90
2017-07-03T10:05:49.082Z,48.00
2017-07-03T10:08:17.622Z,49.70
2017-07-03T10:10:46.161Z,47.10
2017-07-03T10:13:17.603Z,48.60
2017-07-03T10:15:46.847Z,47.40
2017-07-03T10:18:15.355Z,46.90
2017-07-03T10:20:43.846Z,41.40
2017-07-03T10:23:12.394Z,45.20
2017-07-03T10:25:40.990Z,41.80
2017-07-03T10:28:10.344Z,43.50
2017-07-03T10:30:40.135Z,43.10
2017-07-03T10:33:08.606Z,45.30
2017-07-03T10:35:37.102Z,42.10
2017-07-03T10:38:05.624Z,45.60
2017-07-03T10:40:34.112Z,46.60
2017-07-03T10:43:02.640Z,47.80
2017-07-03T10:45:31.166Z,48.40
2017-07-03T10:47:59.660Z,48.60
2017-07-03T10:50:28.163Z,49.30
2017-07-03T10:52:57.339Z,49.60
2017-07-03T10:55:25.873Z,53.70
2017-07-03T10:57:54.395Z,51.10
2017-07-03T11:00:23.248Z,48.90
2017-07-03T11:02:51.832Z,49.00
2017-07-03T11:05:20.345Z,50.00
2017-07-03T11:07:48.894Z,51.30
2017-07-03T11:10:17.423Z,49.20
2017-07-03T11:12:45.891Z,49.90
2017-07-03T11:15:14.368Z,50.50
2017-07-03T11:17:42.946Z,48.10
2017-07-03T11:20:11.550Z,47.80
2017-07-03T11:22:40.118Z,47.80
2017-07-03T11:25:08.618Z,45.70
2017-07-03T11:27:37.875Z,46.90
2017-07-03T11:30:06.397Z,45.80
2017-07-03T11:32:35.632Z,47.00
2017-07-03T11:35:04.213Z,47.10
2017-07-03T11:37:32.766Z,48.50
2017-07-03T11:40:01.463Z,48.70
2017-07-03T11:42:29.952Z,49.20
2017-07-03T11:44:58.455Z,46.60
2017-07-03T11:47:26.972Z,47.80
2017-07-03T11:49:55.562Z,47.00
2017-07-03T11:52:24.395Z,50.40
2017-07-03T11:54:52.931Z,47.90
2017-07-03T11:57:21.432Z,42.90
2017-07-03T11:59:49.968Z,41.50
2017-07-03T12:02:18.514Z,43.00
2017-07-03T12:04:47.045Z,45.40
2017-07-03T12:07:19.443Z,43.60
2017-07-03T12:09:57.375Z,44.30
2017-07-03T12:12:27.579Z,42.90
2017-07-03T12:14:56.111Z,41.70
2017-07-03T12:17:31.633Z,45.40
2017-07-03T12:20:00.227Z,45.80
2017-07-03T12:22:30.654Z,41.00
2017-07-03T12:24:59.234Z,39.80
2017-07-03T12:27:27.732Z,40.70
2017-07-03T12:29:57.623Z,41.20
2017-07-03T12:32:27.233Z,39.80
2017-07-03T12:34:56.121Z,45.50
2017-07-03T12:37:24.658Z,42.70
2017-07-03T12:39:53.938Z,40.00
2017-07-03T12:42:23.227Z,40.20
2017-07-03T12:44:51.727Z,41.50
2017-07-03T12:47:29.269Z,40.30
2017-07-03T12:49:57.804Z,39.80
2017-07-03T12:55:01.125Z,40.90
2017-07-03T12:57:29.752Z,40.90
2017-07-03T12:59:58.333Z,38.00
2017-07-03T13:02:26.844Z,41.80
2017-07-03T13:04:55.431Z,43.60
2017-07-03T13:07:23.953Z,41.60
2017-07-03T13:09:53.243Z,40.50
2017-07-03T13:12:21.761Z,40.70
2017-07-03T13:14:50.285Z,38.90
2017-07-03T13:17:18.816Z,38.80
2017-07-03T13:19:47.307Z,40.70
2017-07-03T13:22:15.974Z,40.30
2017-07-03T13:24:44.508Z,41.30
2017-07-03T13:27:13.140Z,42.50
2017-07-03T13:29:42.476Z,39.80
2017-07-03T13:32:11.029Z,39.80
2017-07-03T13:34:39.730Z,39.20
2017-07-03T13:37:08.284Z,40.30
2017-07-03T13:42:15.280Z,40.00
2017-07-03T13:44:43.764Z,40.60
2017-07-03T13:47:12.257Z,38.50
2017-07-03T13:49:40.835Z,39.30
2017-07-03T13:52:11.230Z,38.40
2017-07-03T13:54:39.715Z,35.80
2017-07-03T13:57:08.238Z,38.20
2017-07-03T13:59:44.967Z,39.70
2017-07-03T14:02:16.122Z,40.80
2017-07-03T14:04:45.483Z,38.70
2017-07-03T14:07:15.324Z,38.20
2017-07-03T14:09:43.865Z,37.20
2017-07-03T14:12:12.339Z,37.90
2017-07-03T14:14:41.691Z,36.90
2017-07-03T14:17:10.191Z,36.90
2017-07-03T14:19:38.954Z,36.20
2017-07-03T14:22:08.338Z,36.10
2017-07-03T14:24:37.811Z,38.00
2017-07-03T14:27:06.309Z,38.00
2017-07-03T14:29:35.489Z,34.30
2017-07-03T14:32:04.132Z,35.10
2017-07-03T14:34:32.627Z,37.60
2017-07-03T14:37:01.239Z,37.60
2017-07-03T14:39:31.174Z,38.70
2017-07-03T14:41:59.675Z,36.30
2017-07-03T14:44:28.623Z,37.70
2017-07-03T14:46:57.474Z,37.60
2017-07-03T14:49:26.059Z,38.70
2017-07-03T14:51:54.614Z,39.10
2017-07-03T14:54:23.166Z,38.70
2017-07-03T14:56:51.690Z,37.90
2017-07-03T14:59:20.169Z,39.00
2017-07-03T15:01:50.266Z,36.40
2017-07-03T15:04:18.771Z,36.30
2017-07-03T15:06:47.342Z,40.10
2017-07-03T15:09:16.132Z,37.30
2017-07-03T15:11:47.344Z,38.80
2017-07-03T15:14:16.096Z,37.30
2017-07-03T15:16:44.840Z,36.30
2017-07-03T15:19:14.342Z,36.60
2017-07-03T15:21:42.911Z,34.90
2017-07-03T15:28:32.854Z,37.10
2017-07-03T15:31:02.688Z,36.90
2017-07-03T15:33:39.308Z,35.60
2017-07-03T15:36:08.006Z,36.70
2017-07-03T15:38:37.575Z,37.00
2017-07-03T15:41:06.091Z,36.30
2017-07-03T15:43:34.709Z,37.60
2017-07-03T15:46:07.696Z,36.40
2017-07-03T15:48:36.380Z,34.50
2017-07-03T15:51:04.905Z,34.20
2017-07-03T15:53:34.232Z,33.80
2017-07-03T15:56:04.899Z,33.70
2017-07-03T15:58:35.627Z,35.30
2017-07-03T16:01:15.060Z,34.60
2017-07-03T16:03:44.091Z,36.80
2017-07-03T16:06:14.485Z,36.90
2017-07-03T16:08:43.144Z,37.80
2017-07-03T16:11:11.661Z,37.60
2017-07-03T16:13:40.225Z,38.60
2017-07-03T16:16:08.858Z,39.40
2017-07-03T16:18:37.347Z,37.70
2017-07-03T16:21:05.854Z,37.20
2017-07-03T16:23:34.403Z,37.80
2017-07-03T16:26:02.935Z,38.70
2017-07-03T16:28:31.472Z,37.30
2017-07-03T16:31:14.996Z,36.90
2017-07-03T16:33:43.629Z,36.30
2017-07-03T16:38:55.446Z,36.60
2017-07-03T16:41:24.323Z,37.20
2017-07-03T16:43:52.826Z,37.60
2017-07-03T16:46:22.730Z,36.60
2017-07-03T16:48:51.331Z,37.90
2017-07-03T16:51:21.522Z,38.50
2017-07-03T16:53:50.036Z,36.40
2017-07-03T16:56:18.590Z,36.60
2017-07-03T16:59:04.591Z,37.70
2017-07-03T17:01:33.270Z,38.70
2017-07-03T17:07:19.088Z,40.30
2017-07-03T17:12:35.057Z,39.10
2017-07-03T17:15:29.675Z,38.70
2017-07-03T17:17:58.228Z,38.80
2017-07-03T17:20:26.742Z,39.10
2017-07-03T17:23:03.470Z,39.30
2017-07-03T17:25:32.003Z,38.80
2017-07-03T17:28:00.545Z,38.70
2017-07-03T17:30:29.105Z,39.70
2017-07-03T17:32:57.655Z,41.10
2017-07-03T17:35:26.229Z,40.60
2017-07-03T17:37:55.133Z,41.20
2017-07-03T17:40:23.851Z,41.20
2017-07-03T17:42:52.370Z,41.20
2017-07-03T17:45:20.955Z,41.20
2017-07-03T17:47:49.485Z,42.30
2017-07-03T17:50:18.768Z,45.70
2017-07-03T17:52:47.333Z,45.60
2017-07-03T17:55:15.901Z,46.40
2017-07-03T17:57:44.389Z,47.90
2017-07-03T18:00:13.029Z,48.10
2017-07-03T18:02:41.492Z,50.20
2017-07-03T18:05:10.343Z,51.00
2017-07-03T18:07:38.931Z,52.10
2017-07-03T18:10:07.398Z,52.80
2017-07-03T18:12:35.933Z,53.40
2017-07-03T18:15:05.394Z,54.20
2017-07-03T18:17:35.087Z,54.80
2017-07-03T18:20:03.702Z,55.80
2017-07-03T18:22:32.272Z,56.70
2017-07-03T18:25:00.840Z,56.40
2017-07-03T18:27:44.929Z,57.30
2017-07-03T18:30:13.772Z,57.60
2017-07-03T18:32:44.851Z,58.40
2017-07-03T18:35:14.618Z,58.60
2017-07-03T18:37:43.077Z,59.50
2017-07-03T18:40:11.923Z,59.60
2017-07-03T18:42:40.465Z,59.70
2017-07-03T18:45:09.070Z,61.30
2017-07-03T18:47:37.645Z,60.90
2017-07-03T18:50:06.141Z,61.00
2017-07-03T18:52:34.643Z,60.60
2017-07-03T18:55:03.158Z,62.00
2017-07-03T18:57:31.603Z,62.60
2017-07-03T19:00:00.056Z,62.90
2017-07-03T19:02:29.592Z,62.60
2017-07-03T19:04:58.138Z,64.00
2017-07-03T19:07:26.648Z,64.50
2017-07-03T19:09:55.243Z,64.80
2017-07-03T19:12:24.090Z,64.10
2017-07-03T19:14:52.644Z,64.80
2017-07-03T19:17:21.362Z,65.40
2017-07-03T19:19:49.807Z,65.90
2017-07-03T19:22:18.321Z,65.40
2017-07-03T19:24:47.199Z,66.60
2017-07-03T19:27:15.697Z,66.60
2017-07-03T19:29:44.160Z,67.10
2017-07-03T19:32:12.696Z,67.60
2017-07-03T19:34:41.592Z,68.70
2017-07-03T19:37:10.147Z,69.10
2017-07-03T19:39:39.113Z,70.90
2017-07-03T19:42:07.601Z,70.90
2017-07-03T19:44:36.088Z,71.10
2017-07-03T19:47:06.344Z,71.90
2017-07-03T19:49:34.950Z,72.30
2017-07-03T19:52:03.434Z,72.30
2017-07-03T19:54:32.045Z,72.50
2017-07-03T19:57:00.535Z,73.70
2017-07-03T19:59:29.040Z,74.20
2017-07-03T20:01:57.718Z,74.50
2017-07-03T20:04:26.252Z,74.30
2017-07-03T20:06:54.821Z,74.90
2017-07-03T20:09:23.335Z,75.30
2017-07-03T20:11:51.931Z,74.80
2017-07-03T20:14:20.450Z,75.50
2017-07-03T20:16:50.339Z,74.80
2017-07-03T20:19:18.816Z,74.60
2017-07-03T20:21:47.385Z,75.30
2017-07-03T20:24:15.953Z,75.80
2017-07-03T20:26:44.550Z,77.60
2017-07-03T20:29:13.832Z,75.80
2017-07-03T20:31:42.436Z,76.10
2017-07-03T20:36:57.745Z,76.70
2017-07-03T20:39:28.163Z,76.60
2017-07-03T20:41:56.697Z,76.00
2017-07-03T20:44:26.888Z,75.50
2017-07-03T20:46:55.405Z,75.50
2017-07-03T20:49:24.991Z,75.70
2017-07-03T20:51:56.902Z,75.80
2017-07-03T20:55:04.392Z,76.20
2017-07-03T20:57:32.964Z,77.00
2017-07-03T21:00:01.779Z,77.10
2017-07-03T21:02:31.128Z,77.70
2017-07-03T21:05:02.631Z,77.70
2017-07-03T21:10:19.023Z,77.70
2017-07-03T21:13:05.326Z,76.90
2017-07-03T21:20:16.412Z,78.30
2017-07-03T21:22:46.259Z,78.80
2017-07-03T21:25:15.040Z,78.00
2017-07-03T21:27:43.845Z,78.60
2017-07-03T21:30:13.594Z,78.20
2017-07-03T21:32:42.442Z,78.10
2017-07-03T21:35:11.243Z,78.20
2017-07-03T21:37:40.100Z,78.60
2017-07-03T21:40:08.832Z,79.20
2017-07-03T21:42:38.051Z,80.40
2017-07-03T21:45:06.791Z,79.90
2017-07-03T21:47:35.591Z,80.40
2017-07-03T21:50:04.333Z,80.30
2017-07-03T21:52:33.222Z,80.00
2017-07-03T21:55:02.053Z,79.70
2017-07-03T21:57:30.912Z,79.40
2017-07-03T21:59:59.664Z,79.10
2017-07-03T22:02:28.505Z,79.70
2017-07-03T22:04:57.713Z,79.40
2017-07-03T22:07:26.529Z,79.10
2017-07-03T22:09:56.336Z,79.60
2017-07-03T22:12:25.199Z,79.50
2017-07-03T22:14:54.120Z,79.70
2017-07-03T22:17:22.866Z,79.80
2017-07-03T22:19:51.703Z,80.70
2017-07-03T22:22:20.593Z,80.60
2017-07-03T22:24:49.374Z,80.50
2017-07-03T22:27:18.183Z,80.90
2017-07-03T22:29:46.945Z,80.80
2017-07-03T22:32:15.728Z,80.80
2017-07-03T22:34:44.532Z,81.20
2017-07-03T22:37:13.374Z,80.90
2017-07-03T22:39:42.180Z,81.00
2017-07-03T22:42:11.022Z,79.60
2017-07-03T22:44:40.533Z,79.00
2017-07-03T22:47:10.032Z,78.30
2017-07-03T22:49:38.963Z,77.30
2017-07-03T22:52:07.754Z,77.60
2017-07-03T22:54:36.539Z,77.20
2017-07-03T22:57:05.626Z,77.80
2017-07-03T22:59:34.437Z,78.40
2017-07-03T23:02:03.263Z,78.60
2017-07-03T23:04:33.085Z,80.10
2017-07-03T23:07:01.852Z,80.20
2017-07-03T23:09:31.391Z,80.60
2017-07-03T23:12:00.183Z,81.00
2017-07-03T23:14:28.984Z,81.10
2017-07-03T23:16:57.793Z,81.00
2017-07-03T23:19:26.807Z,81.30
2017-07-03T23:21:56.181Z,81.00
2017-07-03T23:24:24.622Z,81.40
2017-07-03T23:26:53.502Z,81.70
2017-07-03T23:29:22.271Z,82.20
2017-07-03T23:31:51.279Z,82.70
2017-07-03T23:34:20.071Z,82.50
2017-07-03T23:36:48.890Z,82.70
2017-07-03T23:39:17.752Z,83.10
2017-07-03T23:41:46.605Z,83.30
2017-07-03T23:44:15.404Z,83.10
2017-07-03T23:46:44.190Z,83.10
2017-07-03T23:49:13.063Z,83.50
2017-07-03T23:51:41.859Z,83.70
2017-07-03T23:54:10.622Z,83.50
2017-07-03T23:56:39.489Z,83.20
2017-07-03T23:59:08.305Z,82.90
